sensor_id;sensor_type;location;lat;lon;timestamp;P1;durP1;ratioP1;P2;durP2;ratioP2
11197;SDS011;5655;48.744;9.162;2022-09-09T00:00:01;7.22;;;1.50;;
11197;SDS011;5655;48.744;9.162;2022-09-09T00:02:31;3.03;;;1.05;;
11197;SDS011;5655;48.744;9.162;2022-09-09T00:18:38;4.05;;;1.27;;
11197;SDS011;5655;48.744;9.162;2022-09-09T00:21:15;2.53;;;1.08;;
11197;SDS011;5655;48.744;9.162;2022-09-09T00:23:51;3.28;;;1.25;;
11197;SDS011;5655;48.744;9.162;2022-09-09T00:26:26;2.72;;;1.20;;
11197;SDS011;5655;48.744;9.162;2022-09-09T00:29:09;7.55;;;4.57;;
11197;SDS011;5655;48.744;9.162;2022-09-09T00:31:59;3.88;;;2.60;;
11197;SDS011;5655;48.744;9.162;2022-09-09T00:34:30;1.77;;;1.10;;
11197;SDS011;5655;48.744;9.162;2022-09-09T00:36:57;3.97;;;1.13;;
11197;SDS011;5655;48.744;9.162;2022-09-09T00:39:37;6.07;;;1.35;;
11197;SDS011;5655;48.744;9.162;2022-09-09T00:42:13;3.60;;;1.17;;
11197;SDS011;5655;48.744;9.162;2022-09-09T00:47:57;3.05;;;1.27;;
11197;SDS011;5655;48.744;9.162;2022-09-09T00:55:52;2.22;;;0.95;;
11197;SDS011;5655;48.744;9.162;2022-09-09T00:58:25;3.80;;;0.80;;
11197;SDS011;5655;48.744;9.162;2022-09-09T01:00:54;1.63;;;0.90;;
11197;SDS011;5655;48.744;9.162;2022-09-09T01:03:34;4.50;;;1.05;;
11197;SDS011;5655;48.744;9.162;2022-09-09T01:08:53;3.78;;;1.10;;
11197;SDS011;5655;48.744;9.162;2022-09-09T01:11:37;1.02;;;0.80;;
11197;SDS011;5655;48.744;9.162;2022-09-09T01:22:29;2.70;;;1.10;;
11197;SDS011;5655;48.744;9.162;2022-09-09T01:27:53;2.28;;;1.00;;
11197;SDS011;5655;48.744;9.162;2022-09-09T01:30:22;2.35;;;1.30;;
11197;SDS011;5655;48.744;9.162;2022-09-09T01:32:49;2.47;;;1.40;;
11197;SDS011;5655;48.744;9.162;2022-09-09T01:37:49;2.45;;;0.90;;
11197;SDS011;5655;48.744;9.162;2022-09-09T01:40:14;1.35;;;1.00;;
11197;SDS011;5655;48.744;9.162;2022-09-09T01:42:40;2.67;;;1.02;;
11197;SDS011;5655;48.744;9.162;2022-09-09T01:45:05;2.13;;;0.93;;
11197;SDS011;5655;48.744;9.162;2022-09-09T01:47:31;4.07;;;1.38;;
11197;SDS011;5655;48.744;9.162;2022-09-09T01:49:57;2.58;;;1.08;;
11197;SDS011;5655;48.744;9.162;2022-09-09T01:52:23;2.05;;;0.70;;
11197;SDS011;5655;48.744;9.162;2022-09-09T01:54:48;3.85;;;1.33;;
11197;SDS011;5655;48.744;9.162;2022-09-09T01:57:25;4.03;;;1.00;;
11197;SDS011;5655;48.744;9.162;2022-09-09T02:00:07;1.65;;;0.75;;
11197;SDS011;5655;48.744;9.162;2022-09-09T02:07:56;3.70;;;1.02;;
11197;SDS011;5655;48.744;9.162;2022-09-09T02:10:31;1.80;;;1.23;;
11197;SDS011;5655;48.744;9.162;2022-09-09T02:13:09;1.55;;;0.95;;
11197;SDS011;5655;48.744;9.162;2022-09-09T02:15:55;2.20;;;1.00;;
11197;SDS011;5655;48.744;9.162;2022-09-09T02:18:37;3.15;;;1.08;;
11197;SDS011;5655;48.744;9.162;2022-09-09T02:21:04;2.55;;;1.20;;
11197;SDS011;5655;48.744;9.162;2022-09-09T02:23:30;6.43;;;1.10;;
11197;SDS011;5655;48.744;9.162;2022-09-09T02:25:58;2.65;;;1.20;;
11197;SDS011;5655;48.744;9.162;2022-09-09T02:28:25;2.35;;;1.13;;
11197;SDS011;5655;48.744;9.162;2022-09-09T02:30:54;3.20;;;1.10;;
11197;SDS011;5655;48.744;9.162;2022-09-09T02:33:22;2.63;;;1.00;;
11197;SDS011;5655;48.744;9.162;2022-09-09T02:35:50;1.83;;;1.10;;
11197;SDS011;5655;48.744;9.162;2022-09-09T02:38:17;3.00;;;1.00;;
11197;SDS011;5655;48.744;9.162;2022-09-09T02:40:46;2.60;;;1.13;;
11197;SDS011;5655;48.744;9.162;2022-09-09T02:43:13;3.72;;;1.10;;
11197;SDS011;5655;48.744;9.162;2022-09-09T02:45:48;1.73;;;1.10;;
11197;SDS011;5655;48.744;9.162;2022-09-09T02:51:15;3.08;;;1.10;;
11197;SDS011;5655;48.744;9.162;2022-09-09T02:56:21;4.28;;;0.90;;
11197;SDS011;5655;48.744;9.162;2022-09-09T02:58:49;2.58;;;1.00;;
11197;SDS011;5655;48.744;9.162;2022-09-09T03:01:16;2.45;;;0.80;;
11197;SDS011;5655;48.744;9.162;2022-09-09T03:03:42;2.65;;;1.15;;
11197;SDS011;5655;48.744;9.162;2022-09-09T03:06:09;3.83;;;0.95;;
11197;SDS011;5655;48.744;9.162;2022-09-09T03:08:36;1.85;;;0.70;;
11197;SDS011;5655;48.744;9.162;2022-09-09T03:11:02;4.18;;;1.00;;
11197;SDS011;5655;48.744;9.162;2022-09-09T03:13:28;3.00;;;0.85;;
11197;SDS011;5655;48.744;9.162;2022-09-09T03:15:53;1.60;;;0.93;;
11197;SDS011;5655;48.744;9.162;2022-09-09T03:18:18;4.82;;;1.13;;
11197;SDS011;5655;48.744;9.162;2022-09-09T03:20:44;1.33;;;1.10;;
11197;SDS011;5655;48.744;9.162;2022-09-09T03:23:13;2.38;;;1.05;;
11197;SDS011;5655;48.744;9.162;2022-09-09T03:25:39;3.60;;;1.20;;
11197;SDS011;5655;48.744;9.162;2022-09-09T03:28:11;2.65;;;0.93;;
11197;SDS011;5655;48.744;9.162;2022-09-09T03:30:36;2.03;;;0.85;;
11197;SDS011;5655;48.744;9.162;2022-09-09T03:33:02;1.90;;;1.00;;
11197;SDS011;5655;48.744;9.162;2022-09-09T03:35:28;1.35;;;0.77;;
11197;SDS011;5655;48.744;9.162;2022-09-09T03:37:54;1.92;;;0.85;;
11197;SDS011;5655;48.744;9.162;2022-09-09T03:40:20;2.67;;;1.05;;
11197;SDS011;5655;48.744;9.162;2022-09-09T03:42:46;5.00;;;1.00;;
11197;SDS011;5655;48.744;9.162;2022-09-09T03:45:11;1.40;;;0.70;;
11197;SDS011;5655;48.744;9.162;2022-09-09T03:47:36;2.53;;;0.90;;
11197;SDS011;5655;48.744;9.162;2022-09-09T03:50:02;2.83;;;0.98;;
11197;SDS011;5655;48.744;9.162;2022-09-09T03:52:29;4.55;;;1.13;;
11197;SDS011;5655;48.744;9.162;2022-09-09T03:54:55;1.42;;;1.00;;
11197;SDS011;5655;48.744;9.162;2022-09-09T03:57:21;6.25;;;1.10;;
11197;SDS011;5655;48.744;9.162;2022-09-09T03:59:47;1.88;;;0.90;;
11197;SDS011;5655;48.744;9.162;2022-09-09T04:02:12;1.73;;;0.93;;
11197;SDS011;5655;48.744;9.162;2022-09-09T04:04:38;2.33;;;1.02;;
11197;SDS011;5655;48.744;9.162;2022-09-09T04:07:03;2.35;;;0.85;;
11197;SDS011;5655;48.744;9.162;2022-09-09T04:09:31;1.92;;;0.75;;
11197;SDS011;5655;48.744;9.162;2022-09-09T04:11:56;3.25;;;0.75;;
11197;SDS011;5655;48.744;9.162;2022-09-09T04:14:21;2.38;;;0.90;;
11197;SDS011;5655;48.744;9.162;2022-09-09T04:16:47;2.28;;;1.00;;
11197;SDS011;5655;48.744;9.162;2022-09-09T04:19:12;3.97;;;1.15;;
11197;SDS011;5655;48.744;9.162;2022-09-09T04:21:41;1.73;;;1.00;;
11197;SDS011;5655;48.744;9.162;2022-09-09T04:24:10;3.65;;;1.10;;
11197;SDS011;5655;48.744;9.162;2022-09-09T04:26:35;1.38;;;0.90;;
11197;SDS011;5655;48.744;9.162;2022-09-09T04:29:02;4.22;;;1.17;;
11197;SDS011;5655;48.744;9.162;2022-09-09T04:31:28;2.15;;;1.00;;
11197;SDS011;5655;48.744;9.162;2022-09-09T04:33:54;3.22;;;0.90;;
11197;SDS011;5655;48.744;9.162;2022-09-09T04:36:19;3.83;;;1.20;;
11197;SDS011;5655;48.744;9.162;2022-09-09T04:38:45;3.03;;;1.55;;
11197;SDS011;5655;48.744;9.162;2022-09-09T04:41:11;3.35;;;1.02;;
11197;SDS011;5655;48.744;9.162;2022-09-09T04:43:40;3.50;;;1.30;;
11197;SDS011;5655;48.744;9.162;2022-09-09T04:46:05;5.38;;;1.30;;
11197;SDS011;5655;48.744;9.162;2022-09-09T04:48:31;4.40;;;1.45;;
11197;SDS011;5655;48.744;9.162;2022-09-09T04:50:57;1.17;;;0.98;;
11197;SDS011;5655;48.744;9.162;2022-09-09T04:53:24;2.55;;;1.20;;
11197;SDS011;5655;48.744;9.162;2022-09-09T04:55:50;5.18;;;1.60;;
11197;SDS011;5655;48.744;9.162;2022-09-09T04:58:16;7.15;;;1.35;;
11197;SDS011;5655;48.744;9.162;2022-09-09T05:00:42;3.75;;;1.30;;
11197;SDS011;5655;48.744;9.162;2022-09-09T05:03:07;2.22;;;1.15;;
11197;SDS011;5655;48.744;9.162;2022-09-09T05:05:34;3.20;;;1.88;;
11197;SDS011;5655;48.744;9.162;2022-09-09T05:08:06;2.05;;;1.40;;
11197;SDS011;5655;48.744;9.162;2022-09-09T05:10:34;1.65;;;1.02;;
11197;SDS011;5655;48.744;9.162;2022-09-09T05:13:01;3.58;;;1.38;;
11197;SDS011;5655;48.744;9.162;2022-09-09T05:15:26;1.35;;;1.10;;
11197;SDS011;5655;48.744;9.162;2022-09-09T05:17:52;4.38;;;1.35;;
11197;SDS011;5655;48.744;9.162;2022-09-09T05:20:18;2.75;;;1.30;;
11197;SDS011;5655;48.744;9.162;2022-09-09T05:22:43;2.95;;;1.45;;
11197;SDS011;5655;48.744;9.162;2022-09-09T05:25:09;4.10;;;1.23;;
11197;SDS011;5655;48.744;9.162;2022-09-09T05:27:34;1.98;;;1.50;;
11197;SDS011;5655;48.744;9.162;2022-09-09T05:30:00;5.80;;;1.55;;
11197;SDS011;5655;48.744;9.162;2022-09-09T05:32:25;4.40;;;1.52;;
11197;SDS011;5655;48.744;9.162;2022-09-09T05:34:51;3.80;;;1.25;;
11197;SDS011;5655;48.744;9.162;2022-09-09T05:37:17;5.55;;;1.35;;
11197;SDS011;5655;48.744;9.162;2022-09-09T05:39:43;4.20;;;1.35;;
11197;SDS011;5655;48.744;9.162;2022-09-09T05:42:08;3.58;;;1.75;;
11197;SDS011;5655;48.744;9.162;2022-09-09T05:44:33;4.82;;;1.52;;
11197;SDS011;5655;48.744;9.162;2022-09-09T05:46:59;3.17;;;1.17;;
11197;SDS011;5655;48.744;9.162;2022-09-09T05:49:24;3.90;;;1.45;;
11197;SDS011;5655;48.744;9.162;2022-09-09T05:51:50;3.72;;;1.15;;
11197;SDS011;5655;48.744;9.162;2022-09-09T05:54:15;2.40;;;1.02;;
11197;SDS011;5655;48.744;9.162;2022-09-09T05:56:41;5.93;;;1.20;;
11197;SDS011;5655;48.744;9.162;2022-09-09T05:59:06;2.08;;;1.33;;
11197;SDS011;5655;48.744;9.162;2022-09-09T06:01:33;6.78;;;1.33;;
11197;SDS011;5655;48.744;9.162;2022-09-09T06:04:01;6.18;;;1.38;;
11197;SDS011;5655;48.744;9.162;2022-09-09T06:06:32;2.28;;;1.23;;
11197;SDS011;5655;48.744;9.162;2022-09-09T06:09:02;2.25;;;1.00;;
11197;SDS011;5655;48.744;9.162;2022-09-09T06:11:31;3.88;;;1.13;;
11197;SDS011;5655;48.744;9.162;2022-09-09T06:13:58;2.30;;;1.10;;
11197;SDS011;5655;48.744;9.162;2022-09-09T06:16:24;2.30;;;1.30;;
11197;SDS011;5655;48.744;9.162;2022-09-09T06:18:51;2.97;;;1.20;;
11197;SDS011;5655;48.744;9.162;2022-09-09T06:21:23;2.60;;;1.30;;
11197;SDS011;5655;48.744;9.162;2022-09-09T06:23:50;2.05;;;1.17;;
11197;SDS011;5655;48.744;9.162;2022-09-09T06:29:04;3.85;;;1.48;;
11197;SDS011;5655;48.744;9.162;2022-09-09T06:31:30;2.78;;;1.50;;
11197;SDS011;5655;48.744;9.162;2022-09-09T06:33:59;3.40;;;1.30;;
11197;SDS011;5655;48.744;9.162;2022-09-09T06:36:26;4.25;;;1.77;;
11197;SDS011;5655;48.744;9.162;2022-09-09T06:38:59;4.13;;;1.92;;
11197;SDS011;5655;48.744;9.162;2022-09-09T06:41:26;4.43;;;1.63;;
11197;SDS011;5655;48.744;9.162;2022-09-09T06:43:53;4.22;;;1.55;;
11197;SDS011;5655;48.744;9.162;2022-09-09T06:46:24;4.10;;;1.40;;
11197;SDS011;5655;48.744;9.162;2022-09-09T06:48:52;3.67;;;1.35;;
11197;SDS011;5655;48.744;9.162;2022-09-09T06:51:21;3.80;;;1.42;;
11197;SDS011;5655;48.744;9.162;2022-09-09T06:53:49;4.43;;;1.42;;
11197;SDS011;5655;48.744;9.162;2022-09-09T06:58:41;3.85;;;1.88;;
11197;SDS011;5655;48.744;9.162;2022-09-09T07:01:09;3.45;;;1.35;;
11197;SDS011;5655;48.744;9.162;2022-09-09T07:03:37;6.63;;;1.90;;
11197;SDS011;5655;48.744;9.162;2022-09-09T07:06:03;2.80;;;1.27;;
11197;SDS011;5655;48.744;9.162;2022-09-09T07:08:29;2.97;;;1.20;;
11197;SDS011;5655;48.744;9.162;2022-09-09T07:11:01;1.73;;;0.95;;
11197;SDS011;5655;48.744;9.162;2022-09-09T07:13:32;3.17;;;1.17;;
11197;SDS011;5655;48.744;9.162;2022-09-09T07:16:06;3.38;;;1.20;;
11197;SDS011;5655;48.744;9.162;2022-09-09T07:18:32;2.03;;;1.25;;
11197;SDS011;5655;48.744;9.162;2022-09-09T07:20:59;5.57;;;1.27;;
11197;SDS011;5655;48.744;9.162;2022-09-09T07:23:25;3.97;;;1.10;;
11197;SDS011;5655;48.744;9.162;2022-09-09T07:25:51;1.70;;;1.00;;
11197;SDS011;5655;48.744;9.162;2022-09-09T07:28:18;3.80;;;1.65;;
11197;SDS011;5655;48.744;9.162;2022-09-09T07:30:52;3.53;;;2.00;;
11197;SDS011;5655;48.744;9.162;2022-09-09T07:33:19;2.28;;;1.02;;
11197;SDS011;5655;48.744;9.162;2022-09-09T07:35:45;2.35;;;1.40;;
11197;SDS011;5655;48.744;9.162;2022-09-09T07:38:10;2.47;;;0.93;;
11197;SDS011;5655;48.744;9.162;2022-09-09T07:40:36;4.57;;;1.33;;
11197;SDS011;5655;48.744;9.162;2022-09-09T07:43:02;3.80;;;1.30;;
11197;SDS011;5655;48.744;9.162;2022-09-09T07:45:27;3.72;;;1.23;;
11197;SDS011;5655;48.744;9.162;2022-09-09T07:47:57;4.25;;;1.30;;
11197;SDS011;5655;48.744;9.162;2022-09-09T07:50:23;2.95;;;1.27;;
11197;SDS011;5655;48.744;9.162;2022-09-09T07:52:49;4.85;;;1.25;;
11197;SDS011;5655;48.744;9.162;2022-09-09T07:55:15;4.35;;;1.15;;
11197;SDS011;5655;48.744;9.162;2022-09-09T07:57:40;3.35;;;1.33;;
11197;SDS011;5655;48.744;9.162;2022-09-09T08:00:06;4.32;;;1.63;;
11197;SDS011;5655;48.744;9.162;2022-09-09T08:02:32;2.25;;;0.88;;
11197;SDS011;5655;48.744;9.162;2022-09-09T08:04:57;5.32;;;1.40;;
11197;SDS011;5655;48.744;9.162;2022-09-09T08:07:22;3.50;;;1.00;;
11197;SDS011;5655;48.744;9.162;2022-09-09T08:09:48;3.03;;;1.10;;
11197;SDS011;5655;48.744;9.162;2022-09-09T08:12:14;3.67;;;1.15;;
11197;SDS011;5655;48.744;9.162;2022-09-09T08:14:39;4.63;;;1.60;;
11197;SDS011;5655;48.744;9.162;2022-09-09T08:17:05;5.28;;;1.10;;
11197;SDS011;5655;48.744;9.162;2022-09-09T08:19:30;2.60;;;1.10;;
11197;SDS011;5655;48.744;9.162;2022-09-09T08:21:58;2.60;;;0.98;;
11197;SDS011;5655;48.744;9.162;2022-09-09T08:24:26;2.80;;;1.35;;
11197;SDS011;5655;48.744;9.162;2022-09-09T08:26:52;5.00;;;1.02;;
11197;SDS011;5655;48.744;9.162;2022-09-09T08:29:18;3.10;;;1.35;;
11197;SDS011;5655;48.744;9.162;2022-09-09T08:34:11;3.22;;;1.23;;
11197;SDS011;5655;48.744;9.162;2022-09-09T08:36:38;5.78;;;1.30;;
11197;SDS011;5655;48.744;9.162;2022-09-09T08:39:09;4.00;;;1.30;;
11197;SDS011;5655;48.744;9.162;2022-09-09T08:52:56;6.05;;;1.30;;
11197;SDS011;5655;48.744;9.162;2022-09-09T08:55:31;3.20;;;1.13;;
11197;SDS011;5655;48.744;9.162;2022-09-09T08:58:02;6.70;;;1.30;;
11197;SDS011;5655;48.744;9.162;2022-09-09T09:06:50;3.90;;;1.10;;
11197;SDS011;5655;48.744;9.162;2022-09-09T09:12:33;4.82;;;0.80;;
11197;SDS011;5655;48.744;9.162;2022-09-09T09:15:05;5.28;;;0.90;;
11197;SDS011;5655;48.744;9.162;2022-09-09T09:17:42;1.95;;;1.00;;
11197;SDS011;5655;48.744;9.162;2022-09-09T09:20:11;2.70;;;0.95;;
11197;SDS011;5655;48.744;9.162;2022-09-09T09:22:43;2.90;;;1.35;;
11197;SDS011;5655;48.744;9.162;2022-09-09T09:25:13;3.17;;;1.05;;
11197;SDS011;5655;48.744;9.162;2022-09-09T09:28:10;4.03;;;1.10;;
11197;SDS011;5655;48.744;9.162;2022-09-09T09:30:45;9.32;;;1.63;;
11197;SDS011;5655;48.744;9.162;2022-09-09T09:33:19;7.00;;;1.15;;
11197;SDS011;5655;48.744;9.162;2022-09-09T09:35:50;5.00;;;1.35;;
11197;SDS011;5655;48.744;9.162;2022-09-09T09:38:23;4.63;;;0.93;;
11197;SDS011;5655;48.744;9.162;2022-09-09T09:40:57;2.90;;;1.20;;
11197;SDS011;5655;48.744;9.162;2022-09-09T09:45:56;3.63;;;1.13;;
11197;SDS011;5655;48.744;9.162;2022-09-09T09:48:23;3.17;;;0.98;;
11197;SDS011;5655;48.744;9.162;2022-09-09T09:53:29;1.92;;;1.13;;
11197;SDS011;5655;48.744;9.162;2022-09-09T09:56:03;3.28;;;1.10;;
11197;SDS011;5655;48.744;9.162;2022-09-09T09:58:32;3.38;;;1.00;;
11197;SDS011;5655;48.744;9.162;2022-09-09T10:03:57;4.05;;;1.10;;
11197;SDS011;5655;48.744;9.162;2022-09-09T10:06:32;4.18;;;1.17;;
11197;SDS011;5655;48.744;9.162;2022-09-09T10:08:59;4.00;;;1.05;;
11197;SDS011;5655;48.744;9.162;2022-09-09T10:19:56;5.38;;;1.23;;
11197;SDS011;5655;48.744;9.162;2022-09-09T10:22:28;2.45;;;1.08;;
11197;SDS011;5655;48.744;9.162;2022-09-09T10:25:04;2.65;;;0.90;;
11197;SDS011;5655;48.744;9.162;2022-09-09T10:30:23;5.28;;;1.20;;
11197;SDS011;5655;48.744;9.162;2022-09-09T10:38:32;3.92;;;0.85;;
11197;SDS011;5655;48.744;9.162;2022-09-09T10:44:05;6.50;;;1.23;;
11197;SDS011;5655;48.744;9.162;2022-09-09T10:57:28;2.72;;;1.40;;
11197;SDS011;5655;48.744;9.162;2022-09-09T11:00:02;3.83;;;1.50;;
11197;SDS011;5655;48.744;9.162;2022-09-09T11:02:33;5.70;;;1.50;;
11197;SDS011;5655;48.744;9.162;2022-09-09T11:05:08;3.78;;;1.20;;
11197;SDS011;5655;48.744;9.162;2022-09-09T11:08:39;2.28;;;1.40;;
11197;SDS011;5655;48.744;9.162;2022-09-09T11:10:44;4.85;;;1.10;;
11197;SDS011;5655;48.744;9.162;2022-09-09T11:13:19;2.67;;;0.90;;
11197;SDS011;5655;48.744;9.162;2022-09-09T11:15:52;2.90;;;1.63;;
11197;SDS011;5655;48.744;9.162;2022-09-09T11:18:22;3.90;;;1.25;;
11197;SDS011;5655;48.744;9.162;2022-09-09T11:20:49;2.60;;;1.15;;
11197;SDS011;5655;48.744;9.162;2022-09-09T11:23:28;3.72;;;1.42;;
11197;SDS011;5655;48.744;9.162;2022-09-09T11:26:07;2.38;;;1.08;;
11197;SDS011;5655;48.744;9.162;2022-09-09T11:29:13;1.58;;;0.88;;
11197;SDS011;5655;48.744;9.162;2022-09-09T11:40:24;2.85;;;0.60;;
11197;SDS011;5655;48.744;9.162;2022-09-09T11:43:11;1.98;;;0.60;;
11197;SDS011;5655;48.744;9.162;2022-09-09T11:45:39;1.85;;;0.88;;
11197;SDS011;5655;48.744;9.162;2022-09-09T11:48:22;3.60;;;1.00;;
11197;SDS011;5655;48.744;9.162;2022-09-09T11:51:08;1.50;;;0.30;;
11197;SDS011;5655;48.744;9.162;2022-09-09T11:53:50;1.10;;;0.40;;
11197;SDS011;5655;48.744;9.162;2022-09-09T11:58:56;0.30;;;0.22;;
11197;SDS011;5655;48.744;9.162;2022-09-09T12:01:42;0.35;;;0.22;;
11197;SDS011;5655;48.744;9.162;2022-09-09T12:06:41;1.35;;;0.30;;
11197;SDS011;5655;48.744;9.162;2022-09-09T12:09:45;1.30;;;0.50;;
11197;SDS011;5655;48.744;9.162;2022-09-09T12:17:22;2.30;;;0.68;;
11197;SDS011;5655;48.744;9.162;2022-09-09T12:23:15;0.63;;;0.28;;
11197;SDS011;5655;48.744;9.162;2022-09-09T12:28:46;4.80;;;0.70;;
11197;SDS011;5655;48.744;9.162;2022-09-09T12:34:14;1.42;;;0.45;;
11197;SDS011;5655;48.744;9.162;2022-09-09T12:36:44;2.25;;;0.60;;
11197;SDS011;5655;48.744;9.162;2022-09-09T12:39:16;2.83;;;0.68;;
11197;SDS011;5655;48.744;9.162;2022-09-09T12:41:52;2.13;;;0.68;;
11197;SDS011;5655;48.744;9.162;2022-09-09T12:44:22;0.70;;;0.40;;
11197;SDS011;5655;48.744;9.162;2022-09-09T12:46:49;2.03;;;0.52;;
11197;SDS011;5655;48.744;9.162;2022-09-09T12:49:25;1.23;;;0.60;;
11197;SDS011;5655;48.744;9.162;2022-09-09T12:52:05;1.25;;;0.52;;
11197;SDS011;5655;48.744;9.162;2022-09-09T12:54:52;3.03;;;0.60;;
11197;SDS011;5655;48.744;9.162;2022-09-09T12:57:18;4.97;;;0.70;;
11197;SDS011;5655;48.744;9.162;2022-09-09T12:59:45;1.02;;;0.60;;
11197;SDS011;5655;48.744;9.162;2022-09-09T13:02:24;2.10;;;1.00;;
11197;SDS011;5655;48.744;9.162;2022-09-09T13:04:51;1.45;;;0.90;;
11197;SDS011;5655;48.744;9.162;2022-09-09T13:07:19;0.60;;;0.43;;
11197;SDS011;5655;48.744;9.162;2022-09-09T13:09:47;2.38;;;0.95;;
11197;SDS011;5655;48.744;9.162;2022-09-09T13:12:21;1.45;;;0.50;;
11197;SDS011;5655;48.744;9.162;2022-09-09T13:14:48;2.92;;;0.93;;
11197;SDS011;5655;48.744;9.162;2022-09-09T13:17:19;2.50;;;0.57;;
11197;SDS011;5655;48.744;9.162;2022-09-09T13:19:49;1.85;;;0.63;;
11197;SDS011;5655;48.744;9.162;2022-09-09T13:22:31;0.85;;;0.50;;
11197;SDS011;5655;48.744;9.162;2022-09-09T13:27:31;3.72;;;0.88;;
11197;SDS011;5655;48.744;9.162;2022-09-09T13:30:18;2.30;;;0.98;;
11197;SDS011;5655;48.744;9.162;2022-09-09T13:32:47;1.55;;;0.57;;
11197;SDS011;5655;48.744;9.162;2022-09-09T13:35:23;0.98;;;0.40;;
11197;SDS011;5655;48.744;9.162;2022-09-09T13:37:49;3.58;;;0.88;;
11197;SDS011;5655;48.744;9.162;2022-09-09T13:40:16;1.98;;;0.40;;
11197;SDS011;5655;48.744;9.162;2022-09-09T13:42:44;1.90;;;0.60;;
11197;SDS011;5655;48.744;9.162;2022-09-09T13:45:20;2.47;;;0.57;;
11197;SDS011;5655;48.744;9.162;2022-09-09T13:47:48;0.73;;;0.32;;
11197;SDS011;5655;48.744;9.162;2022-09-09T13:52:46;1.42;;;0.73;;
11197;SDS011;5655;48.744;9.162;2022-09-09T13:55:16;2.58;;;0.88;;
11197;SDS011;5655;48.744;9.162;2022-09-09T13:57:56;4.10;;;0.70;;
11197;SDS011;5655;48.744;9.162;2022-09-09T14:00:25;2.20;;;0.57;;
11197;SDS011;5655;48.744;9.162;2022-09-09T14:02:53;2.15;;;0.77;;
11197;SDS011;5655;48.744;9.162;2022-09-09T14:05:20;2.83;;;0.80;;
11197;SDS011;5655;48.744;9.162;2022-09-09T14:07:47;1.05;;;0.57;;
11197;SDS011;5655;48.744;9.162;2022-09-09T14:10:13;1.58;;;0.43;;
11197;SDS011;5655;48.744;9.162;2022-09-09T14:12:38;2.05;;;0.63;;
11197;SDS011;5655;48.744;9.162;2022-09-09T14:15:04;2.35;;;0.60;;
11197;SDS011;5655;48.744;9.162;2022-09-09T14:17:31;2.88;;;0.45;;
11197;SDS011;5655;48.744;9.162;2022-09-09T14:19:57;0.90;;;0.50;;
11197;SDS011;5655;48.744;9.162;2022-09-09T14:22:23;2.42;;;0.50;;
11197;SDS011;5655;48.744;9.162;2022-09-09T14:24:48;2.60;;;0.70;;
11197;SDS011;5655;48.744;9.162;2022-09-09T14:27:14;1.65;;;0.47;;
11197;SDS011;5655;48.744;9.162;2022-09-09T14:29:40;1.52;;;0.30;;
11197;SDS011;5655;48.744;9.162;2022-09-09T14:32:06;1.45;;;0.30;;
11197;SDS011;5655;48.744;9.162;2022-09-09T14:34:31;1.95;;;0.50;;
11197;SDS011;5655;48.744;9.162;2022-09-09T14:37:00;0.90;;;0.30;;
11197;SDS011;5655;48.744;9.162;2022-09-09T14:39:26;2.50;;;0.50;;
11197;SDS011;5655;48.744;9.162;2022-09-09T14:41:51;1.77;;;0.50;;
11197;SDS011;5655;48.744;9.162;2022-09-09T14:44:16;1.67;;;0.32;;
11197;SDS011;5655;48.744;9.162;2022-09-09T14:46:42;1.65;;;0.80;;
11197;SDS011;5655;48.744;9.162;2022-09-09T14:49:07;2.55;;;0.35;;
11197;SDS011;5655;48.744;9.162;2022-09-09T14:51:33;1.92;;;0.52;;
11197;SDS011;5655;48.744;9.162;2022-09-09T14:53:59;1.00;;;0.50;;
11197;SDS011;5655;48.744;9.162;2022-09-09T14:56:25;1.65;;;0.57;;
11197;SDS011;5655;48.744;9.162;2022-09-09T14:58:53;1.27;;;0.40;;
11197;SDS011;5655;48.744;9.162;2022-09-09T15:01:20;1.80;;;0.52;;
11197;SDS011;5655;48.744;9.162;2022-09-09T15:03:52;2.30;;;0.57;;
11197;SDS011;5655;48.744;9.162;2022-09-09T15:06:20;0.77;;;0.22;;
11197;SDS011;5655;48.744;9.162;2022-09-09T15:08:47;1.05;;;0.50;;
11197;SDS011;5655;48.744;9.162;2022-09-09T15:11:14;2.45;;;0.55;;
11197;SDS011;5655;48.744;9.162;2022-09-09T15:13:41;1.70;;;0.45;;
11197;SDS011;5655;48.744;9.162;2022-09-09T15:16:11;1.20;;;0.55;;
11197;SDS011;5655;48.744;9.162;2022-09-09T15:18:41;1.48;;;0.70;;
11197;SDS011;5655;48.744;9.162;2022-09-09T15:21:11;2.72;;;0.82;;
11197;SDS011;5655;48.744;9.162;2022-09-09T15:23:38;1.70;;;0.65;;
11197;SDS011;5655;48.744;9.162;2022-09-09T15:26:04;2.92;;;0.75;;
11197;SDS011;5655;48.744;9.162;2022-09-09T15:28:31;1.17;;;0.60;;
11197;SDS011;5655;48.744;9.162;2022-09-09T15:30:57;3.05;;;0.57;;
11197;SDS011;5655;48.744;9.162;2022-09-09T15:33:24;2.22;;;0.60;;
11197;SDS011;5655;48.744;9.162;2022-09-09T15:35:50;4.82;;;0.57;;
11197;SDS011;5655;48.744;9.162;2022-09-09T15:38:16;2.10;;;0.70;;
11197;SDS011;5655;48.744;9.162;2022-09-09T15:40:42;2.75;;;0.63;;
11197;SDS011;5655;48.744;9.162;2022-09-09T15:43:08;0.65;;;0.52;;
11197;SDS011;5655;48.744;9.162;2022-09-09T15:45:35;2.25;;;0.85;;
11197;SDS011;5655;48.744;9.162;2022-09-09T15:48:02;1.95;;;0.80;;
11197;SDS011;5655;48.744;9.162;2022-09-09T15:50:28;0.93;;;0.35;;
11197;SDS011;5655;48.744;9.162;2022-09-09T15:52:56;2.10;;;0.65;;
11197;SDS011;5655;48.744;9.162;2022-09-09T15:55:21;2.40;;;0.40;;
11197;SDS011;5655;48.744;9.162;2022-09-09T15:57:49;2.25;;;0.80;;
11197;SDS011;5655;48.744;9.162;2022-09-09T16:00:14;2.35;;;0.50;;
11197;SDS011;5655;48.744;9.162;2022-09-09T16:02:40;2.60;;;0.85;;
11197;SDS011;5655;48.744;9.162;2022-09-09T16:05:05;0.90;;;0.50;;
11197;SDS011;5655;48.744;9.162;2022-09-09T16:07:31;2.10;;;0.80;;
11197;SDS011;5655;48.744;9.162;2022-09-09T16:09:56;1.25;;;0.50;;
11197;SDS011;5655;48.744;9.162;2022-09-09T16:12:22;3.72;;;0.65;;
11197;SDS011;5655;48.744;9.162;2022-09-09T16:14:47;1.45;;;0.47;;
11197;SDS011;5655;48.744;9.162;2022-09-09T16:17:12;1.67;;;0.50;;
11197;SDS011;5655;48.744;9.162;2022-09-09T16:19:39;4.20;;;0.93;;
11197;SDS011;5655;48.744;9.162;2022-09-09T16:22:04;3.00;;;0.65;;
11197;SDS011;5655;48.744;9.162;2022-09-09T16:24:31;2.97;;;0.70;;
11197;SDS011;5655;48.744;9.162;2022-09-09T16:26:57;1.33;;;0.70;;
11197;SDS011;5655;48.744;9.162;2022-09-09T16:29:23;3.05;;;0.50;;
11197;SDS011;5655;48.744;9.162;2022-09-09T16:31:49;1.90;;;0.85;;
11197;SDS011;5655;48.744;9.162;2022-09-09T16:34:15;3.00;;;0.82;;
11197;SDS011;5655;48.744;9.162;2022-09-09T16:36:42;0.88;;;0.50;;
11197;SDS011;5655;48.744;9.162;2022-09-09T16:39:12;1.92;;;0.60;;
11197;SDS011;5655;48.744;9.162;2022-09-09T16:41:40;2.45;;;0.43;;
11197;SDS011;5655;48.744;9.162;2022-09-09T16:44:09;2.17;;;0.65;;
11197;SDS011;5655;48.744;9.162;2022-09-09T16:46:36;1.73;;;0.80;;
11197;SDS011;5655;48.744;9.162;2022-09-09T16:49:04;1.35;;;0.68;;
11197;SDS011;5655;48.744;9.162;2022-09-09T16:51:38;2.60;;;0.50;;
11197;SDS011;5655;48.744;9.162;2022-09-09T16:54:06;2.70;;;0.50;;
11197;SDS011;5655;48.744;9.162;2022-09-09T16:56:33;0.95;;;0.45;;
11197;SDS011;5655;48.744;9.162;2022-09-09T16:59:02;0.77;;;0.30;;
11197;SDS011;5655;48.744;9.162;2022-09-09T17:01:31;1.10;;;0.45;;
11197;SDS011;5655;48.744;9.162;2022-09-09T17:04:00;0.93;;;0.45;;
11197;SDS011;5655;48.744;9.162;2022-09-09T17:06:27;1.58;;;0.50;;
11197;SDS011;5655;48.744;9.162;2022-09-09T17:08:57;0.30;;;0.20;;
11197;SDS011;5655;48.744;9.162;2022-09-09T17:11:24;1.48;;;0.40;;
11197;SDS011;5655;48.744;9.162;2022-09-09T17:13:50;2.67;;;0.43;;
11197;SDS011;5655;48.744;9.162;2022-09-09T17:16:17;2.33;;;0.60;;
11197;SDS011;5655;48.744;9.162;2022-09-09T17:18:43;2.20;;;0.50;;
11197;SDS011;5655;48.744;9.162;2022-09-09T17:21:14;3.17;;;0.50;;
11197;SDS011;5655;48.744;9.162;2022-09-09T17:23:43;2.08;;;0.82;;
11197;SDS011;5655;48.744;9.162;2022-09-09T17:26:10;1.35;;;0.35;;
11197;SDS011;5655;48.744;9.162;2022-09-09T17:28:38;1.33;;;0.40;;
11197;SDS011;5655;48.744;9.162;2022-09-09T17:31:05;1.15;;;0.45;;
11197;SDS011;5655;48.744;9.162;2022-09-09T17:33:32;1.10;;;0.50;;
11197;SDS011;5655;48.744;9.162;2022-09-09T17:36:19;1.00;;;0.60;;
11197;SDS011;5655;48.744;9.162;2022-09-09T17:38:47;1.13;;;0.70;;
11197;SDS011;5655;48.744;9.162;2022-09-09T17:43:38;1.15;;;0.90;;